createdAt,value
2019-05-13T00:00:35.350Z,0
2019-05-13T00:01:35.429Z,0
2019-05-13T00:02:35.354Z,0
2019-05-13T00:03:35.431Z,0
2019-05-13T00:04:35.469Z,0
2019-05-13T00:05:35.289Z,0
2019-05-13T00:06:49.918Z,0
2019-05-13T00:07:35.322Z,0
2019-05-13T00:08:35.297Z,0
2019-05-13T00:09:35.384Z,0
2019-05-13T00:10:35.285Z,0
2019-05-13T00:11:35.343Z,0
2019-05-13T00:12:35.561Z,0
2019-05-13T00:13:35.404Z,0
2019-05-13T00:14:35.383Z,0
2019-05-13T00:15:35.359Z,0
2019-05-13T00:16:35.428Z,0
2019-05-13T00:17:35.355Z,0
2019-05-13T00:18:35.432Z,0
2019-05-13T00:19:35.357Z,0
2019-05-13T00:20:35.438Z,0
2019-05-13T00:21:35.357Z,0
2019-05-13T00:22:35.363Z,0
2019-05-13T00:23:35.430Z,0
2019-05-13T00:24:35.437Z,0
2019-05-13T00:25:35.431Z,0
2019-05-13T00:26:35.389Z,0
2019-05-13T00:27:35.413Z,0
2019-05-13T00:28:35.398Z,0
2019-05-13T00:29:35.395Z,0
2019-05-13T00:30:35.457Z,0
2019-05-13T00:31:35.402Z,0
2019-05-13T00:32:35.479Z,0
2019-05-13T00:33:35.404Z,0
2019-05-13T00:34:35.401Z,0
2019-05-13T00:35:35.333Z,0
2019-05-13T00:36:35.439Z,0
2019-05-13T00:37:35.386Z,0
2019-05-13T00:38:35.385Z,0
2019-05-13T00:39:35.455Z,0
2019-05-13T00:40:35.423Z,0
2019-05-13T00:41:35.476Z,0
2019-05-13T00:42:35.473Z,0
2019-05-13T00:43:35.414Z,0
2019-05-13T00:44:35.502Z,0
2019-05-13T00:45:35.404Z,0
2019-05-13T00:46:35.438Z,0
2019-05-13T00:47:35.404Z,0
2019-05-13T00:48:35.358Z,0
2019-05-13T00:49:35.337Z,0
2019-05-13T00:50:35.442Z,0
2019-05-13T00:51:35.393Z,0
2019-05-13T00:52:35.442Z,0
2019-05-13T00:53:35.526Z,0
2019-05-13T00:54:35.393Z,0
2019-05-13T00:55:35.442Z,0
2019-05-13T00:56:35.421Z,0
2019-05-13T00:57:35.497Z,0
2019-05-13T00:58:35.383Z,0
2019-05-13T00:59:35.418Z,0
2019-05-13T01:00:35.483Z,0
2019-05-13T01:01:35.443Z,0
2019-05-13T01:02:35.491Z,0
2019-05-13T01:03:35.504Z,0
2019-05-13T01:04:35.504Z,0
2019-05-13T01:05:35.431Z,0
2019-05-13T01:06:35.464Z,0
2019-05-13T01:07:35.397Z,0
2019-05-13T01:08:35.395Z,0
2019-05-13T01:09:35.473Z,0
2019-05-13T01:10:35.471Z,0
2019-05-13T01:11:35.469Z,0
2019-05-13T01:12:35.404Z,0
2019-05-13T01:13:35.473Z,0
2019-05-13T01:14:35.417Z,0
2019-05-13T01:15:35.478Z,0
2019-05-13T01:16:35.500Z,0
2019-05-13T01:17:35.511Z,0
2019-05-13T01:18:35.449Z,0
2019-05-13T01:19:35.505Z,0
2019-05-13T01:20:35.499Z,0
2019-05-13T01:21:35.454Z,0
2019-05-13T01:22:35.499Z,0
2019-05-13T01:23:35.497Z,0
2019-05-13T01:24:35.481Z,0
2019-05-13T01:25:35.454Z,0
2019-05-13T01:26:35.501Z,0
2019-05-13T01:27:35.497Z,0
2019-05-13T01:28:35.503Z,0
2019-05-13T01:29:35.438Z,0
2019-05-13T01:30:35.469Z,0
2019-05-13T01:31:35.502Z,0
2019-05-13T01:32:35.462Z,0
2019-05-13T01:33:35.426Z,0
2019-05-13T01:34:35.499Z,0
2019-05-13T01:35:35.507Z,0
2019-05-13T01:36:35.427Z,0
2019-05-13T01:37:42.151Z,0
2019-05-13T01:38:35.420Z,0
2019-05-13T01:39:35.422Z,0
2019-05-13T01:40:35.490Z,0
2019-05-13T01:41:35.432Z,0
2019-05-13T01:42:35.498Z,0
2019-05-13T01:43:35.424Z,0
2019-05-13T01:44:35.461Z,0
2019-05-13T01:45:35.430Z,0
2019-05-13T01:46:35.449Z,0
2019-05-13T01:47:35.516Z,0
2019-05-13T01:48:35.434Z,0
2019-05-13T01:49:35.509Z,0
2019-05-13T01:50:35.508Z,0
2019-05-13T01:51:35.450Z,0
2019-05-13T01:52:35.521Z,0
2019-05-13T01:53:35.516Z,0
2019-05-13T01:54:35.409Z,0
2019-05-13T01:55:35.441Z,0
2019-05-13T01:56:35.538Z,0
2019-05-13T01:57:35.548Z,0
2019-05-13T01:58:35.533Z,0
2019-05-13T01:59:35.405Z,0
2019-05-13T02:00:35.751Z,0
2019-05-13T02:01:35.448Z,0
2019-05-13T02:02:35.408Z,0
2019-05-13T02:03:35.547Z,0
2019-05-13T02:04:35.483Z,0
2019-05-13T02:05:35.481Z,0
2019-05-13T02:06:35.497Z,0
2019-05-13T02:07:35.404Z,0
2019-05-13T02:08:35.498Z,0
2019-05-13T02:09:35.421Z,0
2019-05-13T02:10:35.451Z,0
2019-05-13T02:11:35.419Z,0
2019-05-13T02:12:35.455Z,0
2019-05-13T02:13:35.417Z,0
2019-05-13T02:14:35.434Z,0
2019-05-13T02:15:35.510Z,0
2019-05-13T02:16:35.473Z,0
2019-05-13T02:17:35.471Z,0
2019-05-13T02:18:35.468Z,0
2019-05-13T02:19:35.539Z,0
2019-05-13T02:20:35.458Z,0
2019-05-13T02:21:35.468Z,0
2019-05-13T02:22:35.473Z,0
2019-05-13T02:23:35.542Z,0
2019-05-13T02:24:35.542Z,0
2019-05-13T02:25:35.464Z,0
2019-05-13T02:26:35.375Z,0
2019-05-13T02:27:35.464Z,0
2019-05-13T02:28:35.356Z,0
2019-05-13T02:29:35.498Z,0
2019-05-13T02:30:35.402Z,0
2019-05-13T02:31:45.201Z,0
2019-05-13T02:32:35.473Z,0
2019-05-13T02:33:35.398Z,0
2019-05-13T02:34:35.473Z,0
2019-05-13T02:35:35.383Z,0
2019-05-13T02:36:35.477Z,0
2019-05-13T02:37:35.479Z,0
2019-05-13T02:38:35.973Z,0
2019-05-13T02:39:35.476Z,0
2019-05-13T02:40:35.482Z,0
2019-05-13T02:41:35.546Z,0
2019-05-13T02:42:35.475Z,0
2019-05-13T02:43:35.530Z,0
2019-05-13T02:44:35.488Z,0
2019-05-13T02:45:35.579Z,0
2019-05-13T02:46:35.466Z,0
2019-05-13T02:47:35.485Z,0
2019-05-13T02:48:35.472Z,0
2019-05-13T02:49:35.525Z,0
2019-05-13T02:50:35.523Z,0
2019-05-13T02:51:35.470Z,0
2019-05-13T02:52:35.503Z,0
2019-05-13T02:53:35.442Z,0
2019-05-13T02:54:35.541Z,0
2019-05-13T02:55:35.539Z,0
2019-05-13T02:56:35.501Z,0
2019-05-13T02:57:35.514Z,0
2019-05-13T02:58:35.454Z,0
2019-05-13T02:59:35.452Z,0
2019-05-13T03:00:35.435Z,0
2019-05-13T03:01:35.562Z,0
2019-05-13T03:02:35.424Z,0
2019-05-13T03:03:35.552Z,0
2019-05-13T03:04:35.454Z,0
2019-05-13T03:05:35.550Z,0
2019-05-13T03:06:35.545Z,0
2019-05-13T03:07:35.550Z,0
2019-05-13T03:08:46.191Z,0
2019-05-13T03:09:35.548Z,0
2019-05-13T03:10:35.466Z,0
2019-05-13T03:11:35.430Z,0
2019-05-13T03:12:35.558Z,0
2019-05-13T03:13:35.483Z,0
2019-05-13T03:14:35.547Z,0
2019-05-13T03:15:35.458Z,0
2019-05-13T03:16:35.504Z,5
2019-05-13T03:17:35.582Z,5
2019-05-13T03:18:35.466Z,5
2019-05-13T03:19:35.489Z,5
2019-05-13T03:20:35.519Z,5
2019-05-13T03:21:35.689Z,5
2019-05-13T03:22:35.522Z,5
2019-05-13T03:23:35.572Z,11
2019-05-13T03:24:35.575Z,11
2019-05-13T03:25:35.579Z,11
2019-05-13T03:26:35.594Z,11
2019-05-13T03:27:35.693Z,16
2019-05-13T03:28:35.531Z,16
2019-05-13T03:29:35.554Z,16
2019-05-13T03:30:35.959Z,22
2019-05-13T03:31:36.396Z,22
2019-05-13T03:32:43.497Z,22
2019-05-13T03:33:37.705Z,22
2019-05-13T03:34:36.786Z,28
2019-05-13T03:35:37.134Z,28
2019-05-13T03:36:36.601Z,28
2019-05-13T03:37:35.527Z,33
2019-05-13T03:38:53.636Z,33
2019-05-13T03:39:35.602Z,39
2019-05-13T03:40:35.594Z,45
2019-05-13T03:41:35.524Z,45
2019-05-13T03:42:35.569Z,50
2019-05-13T03:43:35.514Z,50
2019-05-13T03:44:35.600Z,56
2019-05-13T03:45:35.631Z,61
2019-05-13T03:46:35.579Z,67
2019-05-13T03:47:35.502Z,67
2019-05-13T03:48:35.582Z,73
2019-05-13T03:49:35.516Z,78
2019-05-13T03:50:35.584Z,84
2019-05-13T03:51:35.516Z,90
2019-05-13T03:52:35.585Z,90
2019-05-13T03:53:35.584Z,95
2019-05-13T03:54:35.518Z,95
2019-05-13T03:55:35.514Z,101
2019-05-13T03:56:35.619Z,106
2019-05-13T03:57:35.523Z,112
2019-05-13T03:58:35.536Z,118
2019-05-13T03:59:35.531Z,118
2019-05-13T04:00:35.546Z,123
2019-05-13T04:01:35.609Z,129
2019-05-13T04:02:35.602Z,135
2019-05-13T04:03:35.534Z,135
2019-05-13T04:04:35.601Z,140
2019-05-13T04:05:35.546Z,146
2019-05-13T04:06:35.610Z,157
2019-05-13T04:07:35.539Z,168
2019-05-13T04:08:35.538Z,174
2019-05-13T04:09:36.802Z,180
2019-05-13T04:10:35.630Z,168
2019-05-13T04:11:35.606Z,168
2019-05-13T04:12:35.539Z,168
2019-05-13T04:13:35.546Z,174
2019-05-13T04:14:35.604Z,180
2019-05-13T04:15:35.549Z,180
2019-05-13T04:16:35.509Z,185
2019-05-13T04:17:35.531Z,191
2019-05-13T04:18:35.490Z,196
2019-05-13T04:19:35.526Z,202
2019-05-13T04:20:35.601Z,208
2019-05-13T04:21:35.603Z,208
2019-05-13T04:22:35.518Z,213
2019-05-13T04:23:35.537Z,219
2019-05-13T04:24:35.603Z,225
2019-05-13T04:25:39.615Z,230
2019-05-13T04:26:35.577Z,236
2019-05-13T04:27:35.606Z,236
2019-05-13T04:28:35.537Z,241
2019-05-13T04:29:35.507Z,241
2019-05-13T04:30:35.542Z,247
2019-05-13T04:31:35.609Z,253
2019-05-13T04:32:35.614Z,258
2019-05-13T04:33:35.550Z,264
2019-05-13T04:34:35.614Z,270
2019-05-13T04:35:35.558Z,275
2019-05-13T04:36:35.616Z,275
2019-05-13T04:37:35.541Z,281
2019-05-13T04:38:35.564Z,286
2019-05-13T04:39:45.880Z,292
2019-05-13T04:40:35.544Z,298
2019-05-13T04:41:35.559Z,298
2019-05-13T04:42:35.622Z,303
2019-05-13T04:43:35.555Z,309
2019-05-13T04:44:35.578Z,315
2019-05-13T04:45:35.627Z,320
2019-05-13T04:46:35.565Z,326
2019-05-13T04:47:35.564Z,326
2019-05-13T04:48:39.383Z,326
2019-05-13T04:49:35.564Z,331
2019-05-13T04:50:35.565Z,331
2019-05-13T04:51:35.702Z,337
2019-05-13T04:52:35.567Z,343
2019-05-13T04:53:35.571Z,360
2019-05-13T04:54:35.638Z,354
2019-05-13T04:55:35.601Z,354
2019-05-13T04:56:35.634Z,360
2019-05-13T04:57:35.641Z,360
2019-05-13T04:58:35.564Z,365
2019-05-13T04:59:40.063Z,365
2019-05-13T05:00:35.560Z,371
2019-05-13T05:01:40.176Z,376
2019-05-13T05:02:39.900Z,376
2019-05-13T05:03:44.571Z,376
2019-05-13T05:04:35.656Z,382
2019-05-13T05:05:35.546Z,382
2019-05-13T05:06:35.657Z,388
2019-05-13T05:07:35.571Z,388
2019-05-13T05:08:35.580Z,393
2019-05-13T05:09:40.409Z,399
2019-05-13T05:10:38.831Z,405
2019-05-13T05:11:35.654Z,410
2019-05-13T05:12:35.657Z,410
2019-05-13T05:13:35.601Z,410
2019-05-13T05:14:35.587Z,416
2019-05-13T05:15:35.585Z,421
2019-05-13T05:16:35.573Z,421
2019-05-13T05:17:35.538Z,421
2019-05-13T05:18:35.581Z,427
2019-05-13T05:19:35.482Z,427
2019-05-13T05:20:35.516Z,433
2019-05-13T05:21:35.471Z,438
2019-05-13T05:22:35.534Z,444
2019-05-13T05:23:35.523Z,444
2019-05-13T05:24:35.482Z,450
2019-05-13T05:25:35.592Z,461
2019-05-13T05:26:35.645Z,461
2019-05-13T05:27:35.561Z,466
2019-05-13T05:28:35.589Z,472
2019-05-13T05:29:35.649Z,478
2019-05-13T05:30:35.564Z,483
2019-05-13T05:31:35.605Z,483
2019-05-13T05:32:36.068Z,489
2019-05-13T05:33:35.664Z,495
2019-05-13T05:34:35.585Z,495
2019-05-13T05:35:35.581Z,500
2019-05-13T05:36:35.599Z,506
2019-05-13T05:37:35.669Z,506
2019-05-13T05:38:35.672Z,506
2019-05-13T05:39:35.684Z,506
2019-05-13T05:40:35.670Z,517
2019-05-13T05:41:35.672Z,725
2019-05-13T05:42:35.671Z,1096
2019-05-13T05:43:35.670Z,1293
2019-05-13T05:44:35.679Z,1125
2019-05-13T05:45:35.675Z,1170
2019-05-13T05:46:35.630Z,1254
2019-05-13T05:47:35.676Z,1355
2019-05-13T05:48:35.610Z,1372
2019-05-13T05:49:35.622Z,1423
2019-05-13T05:50:35.693Z,1468
2019-05-13T05:51:35.675Z,1563
2019-05-13T05:52:35.612Z,1552
2019-05-13T05:53:35.617Z,1552
2019-05-13T05:54:35.616Z,1597
2019-05-13T05:55:35.614Z,1636
2019-05-13T05:56:35.685Z,1665
2019-05-13T05:57:35.619Z,1721
2019-05-13T05:58:35.669Z,1749
2019-05-13T05:59:35.686Z,1743
2019-05-13T06:00:35.688Z,1732
2019-05-13T06:01:37.437Z,1760
2019-05-13T06:02:35.626Z,1743
2019-05-13T06:03:35.691Z,1743
2019-05-13T06:04:35.690Z,1681
2019-05-13T06:05:35.617Z,1771
2019-05-13T06:06:35.703Z,1890
2019-05-13T06:07:35.622Z,1929
2019-05-13T06:08:35.695Z,1974
2019-05-13T06:09:35.695Z,1935
2019-05-13T06:10:46.702Z,1968
2019-05-13T06:11:35.642Z,1974
2019-05-13T06:12:35.695Z,1985
2019-05-13T06:13:35.631Z,1963
2019-05-13T06:14:35.698Z,1912
2019-05-13T06:15:35.700Z,1845
2019-05-13T06:16:35.686Z,1788
2019-05-13T06:17:35.684Z,1755
2019-05-13T06:18:35.597Z,1721
2019-05-13T06:19:35.628Z,1704
2019-05-13T06:20:35.566Z,1693
2019-05-13T06:21:35.569Z,1749
2019-05-13T06:22:35.693Z,1805
2019-05-13T06:23:35.688Z,1867
2019-05-13T06:24:35.592Z,1940
2019-05-13T06:25:35.597Z,2013
2019-05-13T06:26:35.732Z,2053
2019-05-13T06:27:35.596Z,2109
2019-05-13T06:28:35.621Z,2154
2019-05-13T06:29:35.579Z,2176
2019-05-13T06:30:35.622Z,2221
2019-05-13T06:31:35.626Z,2210
2019-05-13T06:32:35.698Z,2210
2019-05-13T06:33:35.629Z,2160
2019-05-13T06:34:35.699Z,2070
2019-05-13T06:35:35.698Z,1963
2019-05-13T06:36:35.705Z,1839
2019-05-13T06:37:35.641Z,1749
2019-05-13T06:38:35.650Z,1710
2019-05-13T06:39:35.704Z,1710
2019-05-13T06:40:35.618Z,1771
2019-05-13T06:41:35.643Z,1890
2019-05-13T06:42:35.695Z,2030
2019-05-13T06:43:35.641Z,2182
2019-05-13T06:44:35.632Z,2311
2019-05-13T06:45:35.584Z,2385
2019-05-13T06:46:35.588Z,2401
2019-05-13T06:47:36.252Z,2430
2019-05-13T06:48:35.583Z,2480
2019-05-13T06:49:35.667Z,2531
2019-05-13T06:50:35.613Z,2570
2019-05-13T06:51:35.703Z,2598
2019-05-13T06:52:35.692Z,2621
2019-05-13T06:53:35.711Z,2694
2019-05-13T06:54:35.699Z,2745
2019-05-13T06:55:35.625Z,2784
2019-05-13T06:56:35.675Z,2778
2019-05-13T06:57:35.626Z,2773
2019-05-13T06:58:35.716Z,2767
2019-05-13T06:59:35.649Z,2767
2019-05-13T07:00:35.723Z,2806
2019-05-13T07:01:35.731Z,2818
2019-05-13T07:02:35.629Z,2818
2019-05-13T07:03:35.644Z,2835
2019-05-13T07:04:35.658Z,2857
2019-05-13T07:05:35.722Z,2880
2019-05-13T07:06:35.652Z,2880
2019-05-13T07:07:35.673Z,2896
2019-05-13T07:08:35.772Z,2913
2019-05-13T07:09:35.739Z,2941
2019-05-13T07:10:35.737Z,2981
2019-05-13T07:11:35.750Z,3009
2019-05-13T07:12:35.672Z,3015
2019-05-13T07:13:35.669Z,3026
2019-05-13T07:14:35.672Z,3015
2019-05-13T07:15:35.743Z,3043
2019-05-13T07:16:35.680Z,3054
2019-05-13T07:17:35.628Z,3043
2019-05-13T07:18:35.663Z,3043
2019-05-13T07:19:35.623Z,3065
2019-05-13T07:20:35.657Z,3076
2019-05-13T07:21:35.735Z,3099
2019-05-13T07:22:35.743Z,3093
2019-05-13T07:23:35.727Z,3065
2019-05-13T07:24:35.628Z,3099
2019-05-13T07:25:35.640Z,3105
2019-05-13T07:26:35.731Z,3127
2019-05-13T07:27:35.679Z,3138
2019-05-13T07:28:35.725Z,3172
2019-05-13T07:29:35.748Z,3166
2019-05-13T07:30:35.684Z,3200
2019-05-13T07:31:35.683Z,3195
2019-05-13T07:32:35.692Z,3211
2019-05-13T07:33:35.760Z,3217
2019-05-13T07:34:35.760Z,3206
2019-05-13T07:35:37.989Z,3268
2019-05-13T07:36:35.686Z,3279
2019-05-13T07:37:35.672Z,3313
2019-05-13T07:38:35.678Z,3330
2019-05-13T07:39:35.657Z,3369
2019-05-13T07:40:35.751Z,3420
2019-05-13T07:41:39.493Z,3442
2019-05-13T07:42:35.663Z,3453
2019-05-13T07:43:35.679Z,3476
2019-05-13T07:44:35.738Z,3481
2019-05-13T07:45:35.674Z,3510
2019-05-13T07:46:35.684Z,3504
2019-05-13T07:47:35.764Z,3481
2019-05-13T07:48:35.768Z,3470
2019-05-13T07:49:35.772Z,3470
2019-05-13T07:50:50.329Z,3515
2019-05-13T07:51:35.693Z,3487
2019-05-13T07:52:35.698Z,3504
2019-05-13T07:53:35.767Z,3526
2019-05-13T07:54:35.711Z,3543
2019-05-13T07:55:35.788Z,3352
2019-05-13T07:56:35.761Z,3566
2019-05-13T07:57:35.757Z,3566
2019-05-13T07:58:37.506Z,3566
2019-05-13T07:59:35.707Z,3577
2019-05-13T08:00:35.660Z,3622
2019-05-13T08:01:35.678Z,3650
2019-05-13T08:02:35.737Z,3678
2019-05-13T08:03:35.768Z,3729
2019-05-13T08:04:35.699Z,3768
2019-05-13T08:05:35.764Z,3796
2019-05-13T08:06:35.766Z,3819
2019-05-13T08:07:35.711Z,3830
2019-05-13T08:08:35.713Z,3847
2019-05-13T08:09:35.719Z,3836
2019-05-13T08:10:35.779Z,3780
2019-05-13T08:11:53.594Z,3802
2019-05-13T08:12:35.781Z,3870
2019-05-13T08:13:35.732Z,3965
2019-05-13T08:14:35.832Z,4033
2019-05-13T08:15:35.714Z,4044
2019-05-13T08:16:35.716Z,4038
2019-05-13T08:17:35.775Z,4106
2019-05-13T08:18:35.706Z,4111
2019-05-13T08:19:35.777Z,4078
2019-05-13T08:20:35.707Z,4033
2019-05-13T08:21:35.777Z,3988
2019-05-13T08:22:35.704Z,3982
2019-05-13T08:23:35.704Z,3993
2019-05-13T08:24:35.701Z,4044
2019-05-13T08:25:35.720Z,4072
2019-05-13T08:26:37.936Z,4078
2019-05-13T08:27:35.800Z,4078
2019-05-13T08:28:35.705Z,4050
2019-05-13T08:29:35.708Z,4044
2019-05-13T08:30:35.722Z,4083
2019-05-13T08:31:35.719Z,4100
2019-05-13T08:32:35.787Z,4100
2019-05-13T08:33:35.785Z,4106
2019-05-13T08:34:35.715Z,4145
2019-05-13T08:35:35.788Z,4241
2019-05-13T08:36:39.154Z,4286
2019-05-13T08:37:35.667Z,4269
2019-05-13T08:38:35.723Z,4246
2019-05-13T08:39:38.449Z,4252
2019-05-13T08:40:35.731Z,4269
2019-05-13T08:41:35.733Z,4297
2019-05-13T08:42:35.766Z,4320
2019-05-13T08:43:35.756Z,4325
2019-05-13T08:44:35.702Z,4348
2019-05-13T08:45:35.737Z,4404
2019-05-13T08:46:35.675Z,4455
2019-05-13T08:47:35.685Z,4471
2019-05-13T08:48:35.620Z,4505
2019-05-13T08:49:35.737Z,4533
2019-05-13T08:50:35.740Z,4578
2019-05-13T08:51:35.700Z,4595
2019-05-13T08:52:35.729Z,4545
2019-05-13T08:53:35.740Z,4455
2019-05-13T08:54:35.649Z,4353
2019-05-13T08:55:35.657Z,4269
2019-05-13T08:56:35.692Z,4190
2019-05-13T08:57:35.747Z,4140
2019-05-13T08:58:35.736Z,4151
2019-05-13T08:59:35.729Z,4213
2019-05-13T09:00:35.720Z,4286
2019-05-13T09:01:35.669Z,4381
2019-05-13T09:02:35.753Z,4471
2019-05-13T09:03:35.787Z,4545
2019-05-13T09:04:35.767Z,4590
2019-05-13T09:05:35.806Z,4651
2019-05-13T09:06:35.721Z,4691
2019-05-13T09:07:35.736Z,4680
2019-05-13T09:08:35.740Z,4657
2019-05-13T09:09:35.813Z,4651
2019-05-13T09:10:35.811Z,4657
2019-05-13T09:11:35.813Z,4629
2019-05-13T09:12:38.312Z,4601
2019-05-13T09:13:35.740Z,4533
2019-05-13T09:14:35.748Z,4533
2019-05-13T09:15:35.741Z,4584
2019-05-13T09:16:35.817Z,4635
2019-05-13T09:17:35.779Z,4674
2019-05-13T09:18:35.731Z,4685
2019-05-13T09:19:35.811Z,4663
2019-05-13T09:20:35.780Z,4680
2019-05-13T09:21:35.729Z,4674
2019-05-13T09:22:35.811Z,4640
2019-05-13T09:23:35.763Z,4612
2019-05-13T09:24:37.741Z,4657
2019-05-13T09:25:35.824Z,4736
2019-05-13T09:26:35.739Z,4809
2019-05-13T09:27:35.828Z,4893
2019-05-13T09:28:35.827Z,4961
2019-05-13T09:29:35.752Z,5034
2019-05-13T09:30:35.767Z,5073
2019-05-13T09:31:35.755Z,5090
2019-05-13T09:32:35.753Z,5101
2019-05-13T09:33:35.755Z,5073
2019-05-13T09:34:35.759Z,5040
2019-05-13T09:35:35.833Z,5000
2019-05-13T09:36:35.773Z,4961
2019-05-13T09:37:35.838Z,4972
2019-05-13T09:38:35.775Z,4955
2019-05-13T09:39:35.829Z,4837
2019-05-13T09:40:35.831Z,4736
2019-05-13T09:41:40.873Z,4685
2019-05-13T09:42:48.231Z,4629
2019-05-13T09:43:35.840Z,4668
2019-05-13T09:44:35.749Z,4753
2019-05-13T09:45:35.760Z,4820
2019-05-13T09:46:35.753Z,4893
2019-05-13T09:47:35.770Z,4826
2019-05-13T09:48:35.852Z,5000
2019-05-13T09:49:35.754Z,5000
2019-05-13T09:50:36.323Z,4888
2019-05-13T09:51:35.852Z,4786
2019-05-13T09:52:39.575Z,4713
2019-05-13T09:53:35.836Z,4708
2019-05-13T09:54:35.773Z,4770
2019-05-13T09:55:35.759Z,4854
2019-05-13T09:56:35.846Z,4978
2019-05-13T09:57:35.762Z,5090
2019-05-13T09:58:35.812Z,5141
2019-05-13T09:59:35.779Z,5203
2019-05-13T10:00:35.728Z,5225
2019-05-13T10:01:35.774Z,5214
2019-05-13T10:02:35.787Z,5203
2019-05-13T10:03:51.978Z,5191
2019-05-13T10:04:35.711Z,5214
2019-05-13T10:05:35.721Z,5214
2019-05-13T10:06:35.725Z,5186
2019-05-13T10:07:35.855Z,5141
2019-05-13T10:08:35.781Z,5056
2019-05-13T10:09:35.811Z,4927
2019-05-13T10:10:35.856Z,4905
2019-05-13T10:11:35.821Z,4905
2019-05-13T10:12:35.857Z,4927
2019-05-13T10:13:35.806Z,4899
2019-05-13T10:14:35.862Z,4803
2019-05-13T10:15:35.772Z,4680
2019-05-13T10:16:35.792Z,4584
2019-05-13T10:17:35.875Z,4511
2019-05-13T10:18:35.808Z,4471
2019-05-13T10:19:35.818Z,4477
2019-05-13T10:20:35.875Z,4477
2019-05-13T10:21:35.809Z,4516
2019-05-13T10:22:35.812Z,4567
2019-05-13T10:23:35.812Z,4550
2019-05-13T10:24:35.880Z,4522
2019-05-13T10:25:35.823Z,4488
2019-05-13T10:26:35.814Z,4443
2019-05-13T10:27:35.886Z,4438
2019-05-13T10:28:35.886Z,4432
2019-05-13T10:29:35.891Z,4438
2019-05-13T10:30:35.812Z,4483
2019-05-13T10:31:35.869Z,4556
2019-05-13T10:32:35.824Z,4612
2019-05-13T10:33:35.813Z,4618
2019-05-13T10:34:35.856Z,4640
2019-05-13T10:35:35.888Z,4668
2019-05-13T10:36:35.821Z,4764
2019-05-13T10:37:35.890Z,4837
2019-05-13T10:38:35.821Z,4876
2019-05-13T10:39:35.834Z,4893
2019-05-13T10:40:35.823Z,4921
2019-05-13T10:41:35.926Z,4961
2019-05-13T10:42:35.892Z,4978
2019-05-13T10:43:40.156Z,4950
2019-05-13T10:44:35.897Z,4950
2019-05-13T10:45:35.905Z,4955
2019-05-13T10:46:35.895Z,4966
2019-05-13T10:47:35.827Z,5028
2019-05-13T10:48:35.835Z,5146
2019-05-13T10:49:35.849Z,5220
2019-05-13T10:50:35.842Z,5281
2019-05-13T10:51:35.830Z,5242
2019-05-13T10:52:35.903Z,5197
2019-05-13T10:53:35.826Z,5225
2019-05-13T10:54:35.908Z,5287
2019-05-13T10:55:35.903Z,5315
2019-05-13T10:56:35.908Z,5270
2019-05-13T10:57:35.835Z,5146
2019-05-13T10:58:35.896Z,5101
2019-05-13T10:59:35.830Z,5096
2019-05-13T11:00:35.840Z,5146
2019-05-13T11:01:35.918Z,5186
2019-05-13T11:02:35.904Z,5163
2019-05-13T11:03:35.836Z,5118
2019-05-13T11:04:35.906Z,5113
2019-05-13T11:05:41.067Z,5146
2019-05-13T11:06:35.913Z,5197
2019-05-13T11:07:35.922Z,5225
2019-05-13T11:08:35.857Z,5214
2019-05-13T11:09:35.848Z,5186
2019-05-13T11:10:35.847Z,5197
2019-05-13T11:11:35.912Z,5253
2019-05-13T11:12:35.847Z,5259
2019-05-13T11:13:52.232Z,5197
2019-05-13T11:14:35.802Z,5118
2019-05-13T11:15:40.979Z,5107
2019-05-13T11:16:35.843Z,5068
2019-05-13T11:17:35.832Z,5000
2019-05-13T11:18:35.782Z,4910
2019-05-13T11:19:37.099Z,4905
2019-05-13T11:20:35.865Z,4995
2019-05-13T11:21:35.835Z,5079
2019-05-13T11:22:35.851Z,5096
2019-05-13T11:23:35.891Z,5118
2019-05-13T11:24:35.869Z,5096
2019-05-13T11:25:35.867Z,5068
2019-05-13T11:26:36.665Z,5135
2019-05-13T11:27:35.924Z,5163
2019-05-13T11:28:35.920Z,5180
2019-05-13T11:29:35.872Z,5208
2019-05-13T11:30:35.858Z,5152
2019-05-13T11:31:35.857Z,5068
2019-05-13T11:32:35.932Z,4995
2019-05-13T11:33:35.929Z,4950
2019-05-13T11:34:35.939Z,4950
2019-05-13T11:35:35.930Z,4950
2019-05-13T11:36:35.863Z,4983
2019-05-13T11:37:35.934Z,5000
2019-05-13T11:38:35.932Z,4978
2019-05-13T11:39:35.872Z,4989
2019-05-13T11:40:35.959Z,4978
2019-05-13T11:41:35.936Z,4983
2019-05-13T11:42:35.898Z,5006
2019-05-13T11:43:35.868Z,5056
2019-05-13T11:44:35.937Z,5079
2019-05-13T11:45:35.870Z,5079
2019-05-13T11:46:35.953Z,5051
2019-05-13T11:47:35.938Z,5034
2019-05-13T11:48:35.893Z,5045
2019-05-13T11:49:35.942Z,5163
2019-05-13T11:50:35.955Z,5310
2019-05-13T11:51:35.934Z,5394
2019-05-13T11:52:35.875Z,5366
2019-05-13T11:53:37.754Z,5310
2019-05-13T11:54:35.871Z,5293
2019-05-13T11:55:35.948Z,5321
2019-05-13T11:56:35.954Z,5360
2019-05-13T11:57:35.940Z,5276
2019-05-13T11:58:35.870Z,5175
2019-05-13T11:59:35.973Z,5011
2019-05-13T12:00:35.939Z,4933
2019-05-13T12:01:35.866Z,4905
2019-05-13T12:02:35.876Z,4905
2019-05-13T12:03:35.852Z,4905
2019-05-13T12:04:35.865Z,4910
2019-05-13T12:05:35.940Z,4876
2019-05-13T12:06:35.869Z,4910
2019-05-13T12:07:35.890Z,4871
2019-05-13T12:08:35.892Z,4888
2019-05-13T12:09:35.956Z,4888
2019-05-13T12:10:35.955Z,4927
2019-05-13T12:11:35.886Z,4916
2019-05-13T12:12:35.971Z,4899
2019-05-13T12:13:35.958Z,4888
2019-05-13T12:15:46.051Z,4966
2019-05-13T12:16:35.891Z,4989
2019-05-13T12:17:35.890Z,4966
2019-05-13T12:18:43.228Z,4916
2019-05-13T12:19:35.895Z,4893
2019-05-13T12:20:35.990Z,4888
2019-05-13T12:21:41.950Z,4921
2019-05-13T12:22:35.897Z,4955
2019-05-13T12:23:35.910Z,4927
2019-05-13T12:24:35.962Z,4860
2019-05-13T12:25:35.965Z,4786
2019-05-13T12:26:35.901Z,4725
2019-05-13T12:27:35.967Z,4708
2019-05-13T12:28:36.006Z,4623
2019-05-13T12:29:35.969Z,4550
2019-05-13T12:30:35.899Z,4511
2019-05-13T12:31:35.909Z,4494
2019-05-13T12:32:35.971Z,4477
2019-05-13T12:33:35.978Z,4511
2019-05-13T12:34:40.528Z,4567
2019-05-13T12:35:35.904Z,4618
2019-05-13T12:36:35.955Z,4663
2019-05-13T12:37:35.908Z,4680
2019-05-13T12:38:35.916Z,4629
2019-05-13T12:39:35.905Z,4595
2019-05-13T12:40:35.907Z,4601
2019-05-13T12:41:35.977Z,4606
2019-05-13T12:42:42.752Z,4578
2019-05-13T12:43:35.873Z,4567
2019-05-13T12:44:59.449Z,4556
2019-05-13T12:45:35.979Z,4578
2019-05-13T12:46:35.917Z,4612
2019-05-13T12:47:35.898Z,4646
2019-05-13T12:48:35.934Z,4646
2019-05-13T12:49:36.762Z,4573
2019-05-13T12:50:35.975Z,4500
2019-05-13T12:51:35.885Z,4410
2019-05-13T12:52:35.984Z,4365
2019-05-13T12:53:35.889Z,4376
2019-05-13T12:54:35.909Z,4342
2019-05-13T12:55:35.980Z,4291
2019-05-13T12:56:35.906Z,4269
2019-05-13T12:57:35.851Z,4280
2019-05-13T12:58:35.958Z,4314
2019-05-13T12:59:35.814Z,4308
2019-05-13T13:00:35.943Z,4252
2019-05-13T13:01:35.853Z,4235
2019-05-13T13:02:35.942Z,4246
2019-05-13T13:03:35.941Z,4258
2019-05-13T13:04:35.896Z,4246
2019-05-13T13:05:37.100Z,4185
2019-05-13T13:06:40.701Z,4123
2019-05-13T13:07:41.261Z,4078
2019-05-13T13:08:43.742Z,4095
2019-05-13T13:09:35.885Z,4111
2019-05-13T13:10:36.107Z,4117
2019-05-13T13:11:35.954Z,4123
2019-05-13T13:12:36.442Z,4156
2019-05-13T13:13:56.811Z,4162
2019-05-13T13:14:39.598Z,4168
2019-05-13T13:15:41.884Z,4173
2019-05-13T13:16:35.953Z,4151
2019-05-13T13:17:35.991Z,4145
2019-05-13T13:18:35.921Z,4078
2019-05-13T13:19:35.947Z,4033
2019-05-13T13:20:42.101Z,4005
2019-05-13T13:21:37.622Z,3960
2019-05-13T13:22:35.999Z,3892
2019-05-13T13:23:35.923Z,3858
2019-05-13T13:24:36.010Z,3841
2019-05-13T13:25:35.964Z,3830
2019-05-13T13:26:35.911Z,3830
2019-05-13T13:28:03.089Z,3841
2019-05-13T13:28:35.978Z,3886
2019-05-13T13:29:35.997Z,3948
2019-05-13T13:30:36.009Z,3965
2019-05-13T13:31:35.898Z,3926
2019-05-13T13:32:35.926Z,3920
2019-05-13T13:33:36.006Z,3937
2019-05-13T13:34:35.957Z,3976
2019-05-13T13:35:35.969Z,3993
2019-05-13T13:36:36.018Z,3971
2019-05-13T13:37:35.932Z,3915
2019-05-13T13:38:35.951Z,3858
2019-05-13T13:39:36.017Z,3847
2019-05-13T13:40:36.017Z,3825
2019-05-13T13:41:35.889Z,3774
2019-05-13T13:42:35.980Z,3740
2019-05-13T13:43:37.251Z,3740
2019-05-13T13:44:36.016Z,3746
2019-05-13T13:46:05.786Z,3723